Aérodrome :







RETROUVEZ-NOUS SUR...

 
LOGIN :

S'inscrire | Disclaimer

   EN    FR    IT 

 









Légende :    VFR   VFR Marginal   IFR   IFR Intensif   IFR Très Intensif
Visi : 
Plafond : 
>= 8 km
>= 3000ft
5 à 8 km
1000 à 3000 ft
1500m à 5 km
500 à 1000 ft
800 à 1500m
200 à 500 ft
< 800m
< 200 ft
Symboles :   Orages  Brouillard  Fortes neiges  Fortes précipitations  Vent > 20 kt






- Altitude de l'aérodrome : 56 ft
- Code IATA : MCP


SBMQ - Macapa Int.

DERNIER METAR :
  • 241700Z 02007KT 9999 BKN020 FEW040TCU BKN080 32/25 Q1010

METARs EXPIRÉS :
  • 241600Z 06009KT 9999 BKN020 BKN080 33/26 Q1011
  • 241500Z 10008KT 9999 BKN020 BKN080 33/26 Q1012

TAF TAF SBMQ
Valide du 24 à 12h jusqu'au 25 à 12h UTC


240900Z 2412/2512 07005KT 7000 SCT017 TX30/2417Z TN25/2509Z
BECMG 2415/2417 10005KT BKN018 FEW030TCU
PROB40 2418/2421 5000 SHRA
BECMG 2420/2422 03007KT SCT017
BECMG 2503/2505 35003KT SCT010
BECMG 2509/2511 06004KT SCT012 RMK PGU



MET'MAP, la Météo Aéronautique d'un coup d'oeil ! - Copyright ORBIFLY Décembre 2007 - Disclaimer

ORBIFLY MET'MAP TEAM :

Programmation & Développement : Alexandra Zaïnal
Sur une idée originale de : Baudouin d'Aumeries
Assistance à la programmation : Marc-Olivier Méhu
Soutien technique & logistique : Manuel Goepfert

Contact : metmap@orbifly.com




SOURCES & CREDITS :

   NOAA